createdAt,value
2016-11-26T00:00:15.729Z,3.92
2016-11-26T00:01:24.342Z,3.96
2016-11-26T00:02:32.917Z,3.94
2016-11-26T00:03:41.813Z,3.99
2016-11-26T00:04:50.391Z,3.96
2016-11-26T00:05:59.281Z,3.62
2016-11-26T00:07:07.861Z,3.66
2016-11-26T00:08:16.777Z,3.6
2016-11-26T00:09:25.690Z,3.67
2016-11-26T00:10:34.599Z,3.7
2016-11-26T00:11:43.602Z,3.9
2016-11-26T00:12:52.830Z,4
2016-11-26T00:14:02.706Z,3.82
2016-11-26T00:15:11.284Z,3.72
2016-11-26T00:16:20.221Z,3.85
2016-11-26T00:17:28.841Z,3.73
2016-11-26T00:18:37.404Z,3.6
2016-11-26T00:19:45.989Z,3.51
2016-11-26T00:20:54.565Z,3.54
2016-11-26T00:22:03.150Z,3.56
2016-11-26T00:23:11.823Z,3.55
2016-11-26T00:24:20.719Z,3.63
2016-11-26T00:25:29.611Z,3.54
2016-11-26T00:26:38.526Z,3.48
2016-11-26T00:27:47.099Z,3.63
2016-11-26T00:28:56.027Z,3.8
2016-11-26T00:30:04.594Z,3.8
2016-11-26T00:31:13.180Z,4.02
2016-11-26T00:32:22.091Z,3.84
2016-11-26T00:33:31.010Z,3.8
2016-11-26T00:34:40.913Z,3.84
2016-11-26T00:35:49.813Z,3.85
2016-11-26T00:36:58.413Z,3.81
2016-11-26T00:38:07.644Z,3.92
2016-11-26T00:39:16.229Z,3.87
2016-11-26T00:40:25.176Z,4.18
2016-11-26T00:41:34.083Z,4.18
2016-11-26T00:42:42.968Z,4.12
2016-11-26T00:43:51.873Z,4
2016-11-26T00:45:00.462Z,3.87
2016-11-26T00:46:09.735Z,3.84
2016-11-26T00:47:18.641Z,3.78
2016-11-26T00:48:27.207Z,3.45
2016-11-26T00:49:36.103Z,3.51
2016-11-26T00:50:44.688Z,3.81
2016-11-26T00:51:53.982Z,3.8
2016-11-26T00:53:02.882Z,3.6
2016-11-26T00:54:12.429Z,3.52
2016-11-26T00:55:21.661Z,3.64
2016-11-26T00:56:30.550Z,3.63
2016-11-26T00:57:39.587Z,3.6
2016-11-26T00:58:48.492Z,3.33
2016-11-26T00:59:57.097Z,3.3
2016-11-26T01:01:06.005Z,3.46
2016-11-26T01:02:15.225Z,3.49
2016-11-26T01:03:24.517Z,3.45
2016-11-26T01:04:33.079Z,3.51
2016-11-26T01:05:41.980Z,3.27
2016-11-26T01:06:50.573Z,3.36
2016-11-26T01:07:59.820Z,3.52
2016-11-26T01:09:09.026Z,3.37
2016-11-26T01:10:17.613Z,3.49
2016-11-26T01:11:26.183Z,3.26
2016-11-26T01:12:35.080Z,3.6
2016-11-26T01:13:43.966Z,3.91
2016-11-26T01:14:52.927Z,3.87
2016-11-26T01:16:01.501Z,3.99
2016-11-26T01:17:10.405Z,3.49
2016-11-26T01:18:18.972Z,3.59
2016-11-26T01:19:27.531Z,3.51
2016-11-26T01:20:36.509Z,3.63
2016-11-26T01:21:45.092Z,3.56
2016-11-26T01:22:53.673Z,3.72
2016-11-26T01:24:02.259Z,3.54
2016-11-26T01:25:10.840Z,3.72
2016-11-26T01:26:19.837Z,3.76
2016-11-26T01:27:28.408Z,3.55
2016-11-26T01:28:36.987Z,3.59
2016-11-26T01:29:45.563Z,3.56
2016-11-26T01:30:54.786Z,3.35
2016-11-26T01:32:03.415Z,3.29
2016-11-26T01:33:12.001Z,3.11
2016-11-26T01:34:20.577Z,3.02
2016-11-26T01:35:29.162Z,3.08
2016-11-26T01:36:37.722Z,3.23
2016-11-26T01:37:46.980Z,3.07
2016-11-26T01:38:55.571Z,3.22
2016-11-26T01:40:04.468Z,3.11
2016-11-26T01:41:13.039Z,2.99
2016-11-26T01:42:21.956Z,3.04
2016-11-26T01:43:30.648Z,2.84
2016-11-26T01:44:39.243Z,2.82
2016-11-26T01:45:47.813Z,2.54
2016-11-26T01:46:56.701Z,2.58
2016-11-26T01:48:05.289Z,2.55
2016-11-26T01:49:14.558Z,2.81
2016-11-26T01:50:23.791Z,2.73
2016-11-26T01:51:32.692Z,2.75
2016-11-26T01:52:41.278Z,2.71
2016-11-26T01:53:50.163Z,2.68
2016-11-26T01:54:58.793Z,2.54
2016-11-26T01:56:07.375Z,2.57
2016-11-26T01:57:15.970Z,2.84
2016-11-26T01:58:24.546Z,3.14
2016-11-26T01:59:33.112Z,2.96
2016-11-26T02:00:41.792Z,2.91
2016-11-26T02:01:50.693Z,2.53
2016-11-26T02:02:59.590Z,2.66
2016-11-26T02:04:08.501Z,2.79
2016-11-26T02:05:17.400Z,2.84
2016-11-26T02:06:26.020Z,2.81
2016-11-26T02:07:34.590Z,2.69
2016-11-26T02:08:43.157Z,2.81
2016-11-26T02:09:51.736Z,2.65
2016-11-26T02:11:00.314Z,2.73
2016-11-26T02:12:09.511Z,2.73
2016-11-26T02:13:18.406Z,2.57
2016-11-26T02:14:26.986Z,2.53
2016-11-26T02:15:35.573Z,2.5
2016-11-26T02:16:44.157Z,2.5
2016-11-26T02:17:53.399Z,2.28
2016-11-26T02:19:02.297Z,2.48
2016-11-26T02:20:10.888Z,2.57
2016-11-26T02:21:19.464Z,2.51
2016-11-26T02:22:28.375Z,2.45
2016-11-26T02:23:37.316Z,2.36
2016-11-26T02:24:46.523Z,2.68
2016-11-26T02:25:55.417Z,2.42
2016-11-26T02:27:03.999Z,2.3
2016-11-26T02:28:12.585Z,2.47
2016-11-26T02:29:22.139Z,2.51
2016-11-26T02:30:30.701Z,2.71
2016-11-26T02:31:39.269Z,3.02
2016-11-26T02:32:48.169Z,3.15
2016-11-26T02:33:57.067Z,2.58
2016-11-26T02:35:06.057Z,2.39
2016-11-26T02:36:15.284Z,2.17
2016-11-26T02:37:24.193Z,2.1
2016-11-26T02:38:33.407Z,2.17
2016-11-26T02:39:41.992Z,2.39
2016-11-26T02:40:51.027Z,2.03
2016-11-26T02:41:59.934Z,2.58
2016-11-26T02:43:08.815Z,2.19
2016-11-26T02:44:17.391Z,1.95
2016-11-26T02:45:26.613Z,1.93
2016-11-26T02:46:35.649Z,1.84
2016-11-26T02:47:44.855Z,1.8
2016-11-26T02:48:54.063Z,1.93
2016-11-26T02:50:02.974Z,1.92
2016-11-26T02:51:11.572Z,1.75
2016-11-26T02:52:20.780Z,1.64
2016-11-26T02:53:29.348Z,1.24
2016-11-26T02:54:37.925Z,1.63
2016-11-26T02:55:46.497Z,1.49
2016-11-26T02:56:55.377Z,1.34
2016-11-26T02:58:04.355Z,1.48
2016-11-26T02:59:13.573Z,1.89
2016-11-26T03:00:22.166Z,1.91
2016-11-26T03:01:31.052Z,1.85
2016-11-26T03:02:39.643Z,1.89
2016-11-26T03:03:48.263Z,1.6
2016-11-26T03:04:57.164Z,1.74
2016-11-26T03:06:06.077Z,1.69
2016-11-26T03:07:15.000Z,1.63
2016-11-26T03:08:23.886Z,1.6
2016-11-26T03:09:32.820Z,1.66
2016-11-26T03:10:41.388Z,1.64
2016-11-26T03:11:50.281Z,1.64
2016-11-26T03:12:58.843Z,1.59
2016-11-26T03:14:08.215Z,1.49
2016-11-26T03:15:17.122Z,1.66
2016-11-26T03:16:25.691Z,1.74
2016-11-26T03:17:34.251Z,1.66
2016-11-26T03:18:43.129Z,1.87
2016-11-26T03:19:52.007Z,1.59
2016-11-26T03:21:01.208Z,1.75
2016-11-26T03:22:10.089Z,1.74
2016-11-26T03:23:18.647Z,1.64
2016-11-26T03:24:27.528Z,1.93
2016-11-26T03:25:36.409Z,1.87
2016-11-26T03:26:45.739Z,1.95
2016-11-26T03:27:54.299Z,1.99
2016-11-26T03:29:02.867Z,2.04
2016-11-26T03:30:11.427Z,2.11
2016-11-26T03:31:20.311Z,1.71
2016-11-26T03:32:29.224Z,1.66
2016-11-26T03:33:38.105Z,1.91
2016-11-26T03:34:46.663Z,2.14
2016-11-26T03:35:55.547Z,1.95
2016-11-26T03:37:05.063Z,1.91
2016-11-26T03:38:13.723Z,1.93
2016-11-26T03:39:22.600Z,1.84
2016-11-26T03:40:31.798Z,1.8
2016-11-26T03:41:40.361Z,1.84
2016-11-26T03:42:48.935Z,1.92
2016-11-26T03:43:57.863Z,1.99
2016-11-26T03:45:06.747Z,1.95
2016-11-26T03:46:15.631Z,1.81
2016-11-26T03:47:24.224Z,1.73
2016-11-26T03:48:32.785Z,2
2016-11-26T03:49:42.115Z,1.93
2016-11-26T03:50:51.312Z,1.97
2016-11-26T03:52:00.196Z,1.99
2016-11-26T03:53:08.760Z,1.95
2016-11-26T03:54:17.322Z,1.93
2016-11-26T03:55:26.547Z,2.04
2016-11-26T03:56:35.426Z,2.04
2016-11-26T03:57:44.304Z,2.01
2016-11-26T03:58:52.899Z,2.07
2016-11-26T04:00:01.772Z,1.99
2016-11-26T04:01:11.051Z,1.89
2016-11-26T04:02:20.245Z,1.89
2016-11-26T04:03:28.806Z,1.85
2016-11-26T04:04:37.369Z,1.97
2016-11-26T04:05:46.248Z,2.1
2016-11-26T04:06:55.214Z,2.19
2016-11-26T04:08:04.731Z,2.18
2016-11-26T04:09:13.327Z,2.43
2016-11-26T04:10:21.889Z,2.5
2016-11-26T04:11:30.769Z,2.24
2016-11-26T04:12:39.699Z,2.1
2016-11-26T04:13:48.583Z,2.12
2016-11-26T04:14:57.189Z,2.11
2016-11-26T04:16:06.074Z,2.04
2016-11-26T04:17:15.271Z,2.28
2016-11-26T04:18:24.501Z,2.15
2016-11-26T04:19:33.702Z,2.06
2016-11-26T04:20:42.610Z,2
2016-11-26T04:21:51.494Z,2.01
2016-11-26T04:23:00.052Z,2.01
2016-11-26T04:24:08.664Z,1.87
2016-11-26T04:25:17.222Z,1.91
2016-11-26T04:26:25.786Z,1.75
2016-11-26T04:27:34.661Z,1.66
2016-11-26T04:28:43.222Z,1.75
2016-11-26T04:29:51.831Z,1.71
2016-11-26T04:31:00.709Z,1.63
2016-11-26T04:32:09.911Z,1.56
2016-11-26T04:33:18.794Z,1.71
2016-11-26T04:34:27.670Z,1.87
2016-11-26T04:35:36.649Z,1.74
2016-11-26T04:36:45.848Z,1.78
2016-11-26T04:37:55.047Z,1.95
2016-11-26T04:39:03.609Z,1.93
2016-11-26T04:40:12.174Z,1.92
2016-11-26T04:41:21.033Z,1.85
2016-11-26T04:42:29.591Z,1.89
2016-11-26T04:43:38.156Z,1.93
2016-11-26T04:44:47.356Z,1.85
2016-11-26T04:45:56.587Z,2.04
2016-11-26T04:47:05.250Z,1.8
2016-11-26T04:48:14.131Z,1.38
2016-11-26T04:49:23.012Z,1.41
2016-11-26T04:50:31.894Z,1.23
2016-11-26T04:51:40.772Z,1.53
2016-11-26T04:52:50.016Z,1.69
2016-11-26T04:53:59.210Z,1.93
2016-11-26T04:55:08.096Z,1.81
2016-11-26T04:56:16.662Z,1.67
2016-11-26T04:57:25.225Z,1.75
2016-11-26T04:58:35.160Z,1.56
2016-11-26T04:59:43.721Z,1.49
2016-11-26T05:00:52.281Z,1.52
2016-11-26T05:02:00.848Z,1.48
2016-11-26T05:03:09.732Z,1.36
2016-11-26T05:04:18.696Z,1.46
2016-11-26T05:05:27.578Z,1.24
2016-11-26T05:06:36.145Z,1.16
2016-11-26T05:07:44.745Z,1.23
2016-11-26T05:08:53.342Z,1.44
2016-11-26T05:10:02.000Z,1.24
2016-11-26T05:11:11.199Z,1.6
2016-11-26T05:12:20.395Z,1.56
2016-11-26T05:13:29.277Z,1.62
2016-11-26T05:14:37.838Z,1.87
2016-11-26T05:15:46.769Z,1.67
2016-11-26T05:16:55.332Z,1.66
2016-11-26T05:18:04.214Z,2
2016-11-26T05:19:12.803Z,1.6
2016-11-26T05:20:21.363Z,1.48
2016-11-26T05:21:30.292Z,1.41
2016-11-26T05:22:39.491Z,1.39
2016-11-26T05:23:48.373Z,1.45
2016-11-26T05:24:56.941Z,1.28
2016-11-26T05:26:06.139Z,1.1
2016-11-26T05:27:14.750Z,1.18
2016-11-26T05:28:23.630Z,1.21
2016-11-26T05:29:32.192Z,1.26
2016-11-26T05:30:40.751Z,1.06
2016-11-26T05:31:49.317Z,1.13
2016-11-26T05:32:58.818Z,1.52
2016-11-26T05:34:07.702Z,1.3
2016-11-26T05:35:16.578Z,1.34
2016-11-26T05:36:25.138Z,1.41
2016-11-26T05:37:33.701Z,1.38
2016-11-26T05:38:42.668Z,1.13
2016-11-26T05:39:51.549Z,1.38
2016-11-26T05:41:00.110Z,1.2
2016-11-26T05:42:08.667Z,1.12
2016-11-26T05:43:17.545Z,1.27
2016-11-26T05:44:26.869Z,1.2
2016-11-26T05:45:35.431Z,1.21
2016-11-26T05:46:44.310Z,1.41
2016-11-26T05:47:53.190Z,1.38
2016-11-26T05:49:02.069Z,1.39
2016-11-26T05:50:11.318Z,1.34
2016-11-26T05:51:20.198Z,1.24
2016-11-26T05:52:29.431Z,1.34
2016-11-26T05:53:38.308Z,1.2
2016-11-26T05:54:47.503Z,1.2
2016-11-26T05:55:56.785Z,1.16
2016-11-26T05:57:05.986Z,1.23
2016-11-26T05:58:14.547Z,1.13
2016-11-26T05:59:23.427Z,1.27
2016-11-26T06:00:32.308Z,1.23
2016-11-26T06:01:40.924Z,1.49
2016-11-26T06:02:49.482Z,1.49
2016-11-26T06:03:58.364Z,1.62
2016-11-26T06:05:06.925Z,1.64
2016-11-26T06:06:15.806Z,1.35
2016-11-26T06:07:24.820Z,1.6
2016-11-26T06:08:33.700Z,1.44
2016-11-26T06:09:42.260Z,1.49
2016-11-26T06:10:51.139Z,1.38
2016-11-26T06:12:00.025Z,1.52
2016-11-26T06:13:08.962Z,1.39
2016-11-26T06:14:17.838Z,1.52
2016-11-26T06:15:27.034Z,1.44
2016-11-26T06:16:35.596Z,1.67
2016-11-26T06:17:44.796Z,1.41
2016-11-26T06:18:53.654Z,1.59
2016-11-26T06:20:02.218Z,1.73
2016-11-26T06:21:11.128Z,2
2016-11-26T06:22:19.690Z,1.95
2016-11-26T06:23:28.574Z,1.82
2016-11-26T06:24:38.221Z,1.64
2016-11-26T06:25:46.779Z,1.6
2016-11-26T06:26:55.338Z,1.67
2016-11-26T06:28:03.897Z,1.34
2016-11-26T06:29:12.775Z,1.12
2016-11-26T06:30:21.709Z,1.05
2016-11-26T06:31:30.588Z,1.2
2016-11-26T06:32:39.812Z,1.35
2016-11-26T06:33:48.690Z,1.3
2016-11-26T06:34:57.571Z,1.18
2016-11-26T06:36:06.488Z,1.08
2016-11-26T06:37:15.364Z,0.94
2016-11-26T06:38:23.920Z,1.16
2016-11-26T06:39:32.477Z,1.18
2016-11-26T06:40:41.676Z,1.24
2016-11-26T06:41:50.585Z,1.46
2016-11-26T06:42:59.463Z,1.41
2016-11-26T06:44:08.346Z,1.3
2016-11-26T06:45:17.231Z,1.27
2016-11-26T06:46:25.787Z,1.16
2016-11-26T06:47:34.714Z,1.42
2016-11-26T06:48:43.283Z,1.53
2016-11-26T06:49:52.161Z,1.08
2016-11-26T06:51:00.724Z,1.1
2016-11-26T06:52:09.601Z,1.24
2016-11-26T06:53:18.512Z,1.31
2016-11-26T06:54:27.073Z,1.23
2016-11-26T06:55:36.275Z,1.13
2016-11-26T06:56:45.156Z,1.26
2016-11-26T06:57:54.030Z,1.44
2016-11-26T06:59:02.892Z,1.35
2016-11-26T07:00:11.771Z,1.16
2016-11-26T07:01:20.647Z,1.39
2016-11-26T07:02:29.524Z,1.2
2016-11-26T07:03:38.738Z,1.1
2016-11-26T07:04:47.672Z,1.12
2016-11-26T07:05:56.229Z,1.16
2016-11-26T07:07:04.788Z,1.24
2016-11-26T07:08:13.674Z,1.13
2016-11-26T07:09:22.553Z,1.06
2016-11-26T07:10:31.481Z,1.02
2016-11-26T07:11:40.359Z,0.98
2016-11-26T07:12:48.935Z,0.94
2016-11-26T07:13:57.816Z,1.09
2016-11-26T07:15:06.702Z,0.98
2016-11-26T07:16:15.677Z,1.09
2016-11-26T07:17:24.241Z,1.08
2016-11-26T07:18:32.798Z,1.03
2016-11-26T07:19:41.360Z,1.05
2016-11-26T07:20:49.917Z,1.18
2016-11-26T07:21:58.850Z,1.34
2016-11-26T07:23:07.731Z,1.12
2016-11-26T07:24:16.292Z,0.96
2016-11-26T07:25:25.488Z,1.09
2016-11-26T07:26:34.044Z,1.31
2016-11-26T07:27:43.270Z,1.41
2016-11-26T07:28:52.149Z,1.12
2016-11-26T07:30:00.713Z,1.12
2016-11-26T07:31:09.602Z,1.36
2016-11-26T07:32:19.115Z,0.99
2016-11-26T07:33:28.344Z,0.94
2016-11-26T07:34:36.902Z,1.12
2016-11-26T07:35:45.473Z,1.41
2016-11-26T07:36:54.354Z,1.39
2016-11-26T07:38:03.264Z,1.48
2016-11-26T07:39:11.911Z,1.17
2016-11-26T07:40:20.785Z,1.24
2016-11-26T07:41:29.344Z,1.16
2016-11-26T07:42:37.901Z,1.09
2016-11-26T07:43:46.462Z,0.88
2016-11-26T07:44:55.691Z,1.08
2016-11-26T07:46:04.253Z,0.96
2016-11-26T07:47:13.155Z,1
2016-11-26T07:48:21.718Z,1.44
2016-11-26T07:49:30.921Z,1.39
2016-11-26T07:50:40.471Z,1.08
2016-11-26T07:51:49.028Z,1.09
2016-11-26T07:52:57.590Z,1.06
2016-11-26T07:54:06.466Z,0.94
2016-11-26T07:55:15.348Z,1.24
2016-11-26T07:56:23.962Z,1.46
2016-11-26T07:57:32.521Z,1.63
2016-11-26T07:58:41.080Z,1.39
2016-11-26T07:59:49.642Z,1.45
2016-11-26T08:00:58.208Z,1.52
2016-11-26T08:02:07.116Z,1.62
2016-11-26T08:03:15.994Z,1.44
2016-11-26T08:04:24.552Z,1.48
2016-11-26T08:05:33.751Z,1.41
2016-11-26T08:06:42.629Z,1.93
2016-11-26T08:07:51.957Z,1.39
2016-11-26T08:09:01.511Z,1.31
2016-11-26T08:10:10.402Z,1.6
2016-11-26T08:11:19.915Z,1.21
2016-11-26T08:12:28.483Z,1.06
2016-11-26T08:13:37.411Z,0.99
2016-11-26T08:14:45.970Z,1.35
2016-11-26T08:15:54.542Z,1.42
2016-11-26T08:17:03.105Z,1.39
2016-11-26T08:18:11.662Z,1.16
2016-11-26T08:19:20.891Z,0.96
2016-11-26T08:20:29.776Z,1.05
2016-11-26T08:21:38.659Z,0.9
2016-11-26T08:22:47.221Z,0.72
2016-11-26T08:23:55.779Z,1
2016-11-26T08:25:04.695Z,1.44
2016-11-26T08:26:13.266Z,1.13
2016-11-26T08:27:22.160Z,1.24
2016-11-26T08:28:30.721Z,1.09
2016-11-26T08:29:39.289Z,1.35
2016-11-26T08:30:48.837Z,1.53
2016-11-26T08:31:57.406Z,1.42
2016-11-26T08:33:06.315Z,1.12
2016-11-26T08:34:15.514Z,1.16
2016-11-26T08:35:24.394Z,1.31
2016-11-26T08:36:33.646Z,1.21
2016-11-26T08:37:42.538Z,1.3
2016-11-26T08:38:51.419Z,1.35
2016-11-26T08:40:00.332Z,1.62
2016-11-26T08:41:08.891Z,2.01
2016-11-26T08:42:17.901Z,2.01
2016-11-26T08:43:26.462Z,1.99
2016-11-26T08:44:35.024Z,2.15
2016-11-26T08:45:43.911Z,1.87
2016-11-26T08:46:52.471Z,1.91
2016-11-26T08:48:01.402Z,1.78
2016-11-26T08:49:10.596Z,1.87
2016-11-26T08:50:19.474Z,1.69
2016-11-26T08:51:28.031Z,1.66
2016-11-26T08:52:36.603Z,1.69
2016-11-26T08:53:45.532Z,1.99
2016-11-26T08:54:54.092Z,1.93
2016-11-26T08:56:03.621Z,1.8
2016-11-26T08:57:12.854Z,2.06
2016-11-26T08:58:21.413Z,2.18
2016-11-26T08:59:30.743Z,2.14
2016-11-26T09:00:39.941Z,1.97
2016-11-26T09:01:49.451Z,2.12
2016-11-26T09:02:58.327Z,1.89
2016-11-26T09:04:06.888Z,2.19
2016-11-26T09:05:16.197Z,1.91
2016-11-26T09:06:24.763Z,1.89
2016-11-26T09:07:33.646Z,2.15
2016-11-26T09:08:42.209Z,1.84
2016-11-26T09:09:50.774Z,1.97
2016-11-26T09:10:59.708Z,1.91
2016-11-26T09:12:08.275Z,1.67
2016-11-26T09:13:16.839Z,1.59
2016-11-26T09:14:25.401Z,1.81
2016-11-26T09:15:34.282Z,1.62
2016-11-26T09:16:43.527Z,1.75
2016-11-26T09:17:52.727Z,1.97
2016-11-26T09:19:01.952Z,2.11
2016-11-26T09:20:10.517Z,2.35
2016-11-26T09:21:19.078Z,2.24
2016-11-26T09:22:27.693Z,2.1
2016-11-26T09:23:36.258Z,2.19
2016-11-26T09:24:45.137Z,2.06
2016-11-26T09:25:54.020Z,2.35
2016-11-26T09:27:02.579Z,2.61
2016-11-26T09:28:11.825Z,2.75
2016-11-26T09:29:20.389Z,2.75
2016-11-26T09:30:28.954Z,2.58
2016-11-26T09:31:37.545Z,2.82
2016-11-26T09:32:46.431Z,2.54
2016-11-26T09:33:55.445Z,2.32
2016-11-26T09:35:04.005Z,2.53
2016-11-26T09:36:13.204Z,2.66
2016-11-26T09:37:21.792Z,3.12
2016-11-26T09:38:30.353Z,2.91
2016-11-26T09:39:39.605Z,3.25
2016-11-26T09:40:48.808Z,3.08
2016-11-26T09:41:57.411Z,3.23
2016-11-26T09:43:06.612Z,3.05
2016-11-26T09:44:15.174Z,2.89
2016-11-26T09:45:24.104Z,3.15
2016-11-26T09:46:32.986Z,3.22
2016-11-26T09:47:41.867Z,3.05
2016-11-26T09:48:51.066Z,2.72
2016-11-26T09:49:59.623Z,2.69
2016-11-26T09:51:09.219Z,2.9
2016-11-26T09:52:18.102Z,3
2016-11-26T09:53:26.985Z,3.14
2016-11-26T09:54:35.555Z,3.04
2016-11-26T09:55:44.438Z,3.05
2016-11-26T09:56:53.355Z,2.71
2016-11-26T09:58:02.234Z,2.91
2016-11-26T09:59:11.114Z,2.79
2016-11-26T10:00:19.992Z,2.86
2016-11-26T10:01:28.554Z,2.54
2016-11-26T10:02:37.228Z,2.76
2016-11-26T10:03:45.790Z,3.08
2016-11-26T10:04:54.348Z,3.11
2016-11-26T10:06:02.913Z,2.82
2016-11-26T10:07:11.475Z,2.61
2016-11-26T10:08:20.088Z,2.65
2016-11-26T10:09:29.298Z,3.05
2016-11-26T10:10:37.866Z,2.84
2016-11-26T10:11:46.426Z,2.89
2016-11-26T10:12:54.985Z,3.44
2016-11-26T10:14:04.223Z,3.44
2016-11-26T10:15:12.783Z,3.37
2016-11-26T10:16:21.346Z,3.09
2016-11-26T10:17:29.909Z,3.3
2016-11-26T10:18:38.790Z,3
2016-11-26T10:19:47.456Z,3.09
2016-11-26T10:20:56.017Z,3.09
2016-11-26T10:22:04.582Z,3.37
2016-11-26T10:23:13.465Z,3.29
2016-11-26T10:24:22.344Z,3.48
2016-11-26T10:25:31.324Z,3.44
2016-11-26T10:26:39.888Z,3.82
2016-11-26T10:27:48.769Z,3.78
2016-11-26T10:28:57.650Z,3.7
2016-11-26T10:30:06.855Z,3.7
2016-11-26T10:31:15.469Z,3.27
2016-11-26T10:32:24.029Z,3.17
2016-11-26T10:33:32.587Z,3.12
2016-11-26T10:34:41.149Z,3.05
2016-11-26T10:35:50.026Z,3.08
2016-11-26T10:36:58.994Z,2.99
2016-11-26T10:38:08.539Z,3.32
2016-11-26T10:39:17.425Z,3.22
2016-11-26T10:40:26.305Z,3.46
2016-11-26T10:41:35.189Z,3.12
2016-11-26T10:42:43.805Z,3.25
2016-11-26T10:43:52.396Z,3.09
2016-11-26T10:45:01.278Z,3.44
2016-11-26T10:46:10.482Z,3.26
2016-11-26T10:47:19.041Z,3.55
2016-11-26T10:48:27.663Z,3.44
2016-11-26T10:49:36.547Z,3.26
2016-11-26T10:50:45.120Z,3.23
2016-11-26T10:51:53.685Z,3.51
2016-11-26T10:53:02.251Z,3.49
2016-11-26T10:54:10.864Z,3.45
2016-11-26T10:55:19.431Z,3.51
2016-11-26T10:56:28.313Z,3.41
2016-11-26T10:57:37.200Z,3.42
2016-11-26T10:58:46.081Z,3.08
2016-11-26T10:59:54.742Z,3.32
2016-11-26T11:01:03.958Z,3.73
2016-11-26T11:02:13.166Z,3.63
2016-11-26T11:03:21.733Z,3.64
2016-11-26T11:04:30.615Z,3.52
2016-11-26T11:05:39.545Z,3.69
2016-11-26T11:06:48.110Z,4.13
2016-11-26T11:07:56.995Z,4.28
2016-11-26T11:09:05.881Z,4.27
2016-11-26T11:10:14.765Z,3.92
2016-11-26T11:11:24.105Z,3.66
2016-11-26T11:12:32.674Z,3.66
2016-11-26T11:13:41.561Z,4.1
2016-11-26T11:14:50.125Z,4.63
2016-11-26T11:15:59.009Z,4.86
2016-11-26T11:17:07.973Z,4.49
2016-11-26T11:18:17.177Z,4.13
2016-11-26T11:19:25.743Z,3.9
2016-11-26T11:20:34.309Z,3.81
2016-11-26T11:21:42.875Z,3.8
2016-11-26T11:22:51.805Z,3.63
2016-11-26T11:24:00.373Z,3.87
2016-11-26T11:25:09.257Z,4.31
2016-11-26T11:26:17.821Z,4
2016-11-26T11:27:26.703Z,4.12
2016-11-26T11:28:35.933Z,3.85
2016-11-26T11:29:44.504Z,3.87
2016-11-26T11:30:53.418Z,4.12
2016-11-26T11:32:01.984Z,3.87
2016-11-26T11:33:11.185Z,3.73
2016-11-26T11:34:20.468Z,3.56
2016-11-26T11:35:29.029Z,4.02
2016-11-26T11:36:37.912Z,3.91
2016-11-26T11:37:46.478Z,4.03
2016-11-26T11:38:55.047Z,3.81
2016-11-26T11:40:03.665Z,3.85
2016-11-26T11:41:12.234Z,4.23
2016-11-26T11:42:20.808Z,4.35
2016-11-26T11:43:29.695Z,4.2
2016-11-26T11:44:38.577Z,4
2016-11-26T11:45:47.808Z,4.05
2016-11-26T11:46:56.692Z,4.34
2016-11-26T11:48:05.259Z,4.21
2016-11-26T11:49:14.144Z,4.18
2016-11-26T11:50:23.032Z,4.17
2016-11-26T11:51:32.374Z,3.8
2016-11-26T11:52:40.936Z,4.08
2016-11-26T11:53:49.501Z,3.63
2016-11-26T11:54:58.389Z,3.76
2016-11-26T11:56:06.955Z,3.92
2016-11-26T11:57:16.231Z,3.78
2016-11-26T11:58:24.792Z,4.1
2016-11-26T11:59:33.679Z,4.31
2016-11-26T12:00:42.563Z,4.23
2016-11-26T12:01:51.768Z,4.82
2016-11-26T12:03:01.003Z,4.82
2016-11-26T12:04:09.883Z,4.36
2016-11-26T12:05:18.454Z,4.6
2016-11-26T12:06:27.021Z,4.35
2016-11-26T12:07:35.591Z,4.63
2016-11-26T12:08:45.161Z,4.75
2016-11-26T12:09:54.045Z,4.91
2016-11-26T12:11:03.247Z,4.85
2016-11-26T12:12:12.131Z,4.45
2016-11-26T12:13:21.012Z,4.56
2016-11-26T12:14:30.344Z,4.85
2016-11-26T12:15:39.863Z,5.41
2016-11-26T12:16:48.426Z,4.89
2016-11-26T12:17:57.626Z,5.27
2016-11-26T12:19:06.511Z,4.93
2016-11-26T12:20:15.127Z,4.6
2016-11-26T12:21:24.013Z,4.56
2016-11-26T12:22:33.212Z,4.6
2016-11-26T12:23:42.092Z,4.35
2016-11-26T12:24:50.656Z,4.57
2016-11-26T12:25:59.594Z,4.75
2016-11-26T12:27:08.165Z,4.89
2016-11-26T12:28:16.734Z,5.07
2016-11-26T12:29:25.299Z,4.96
2016-11-26T12:30:34.181Z,5.04
2016-11-26T12:31:43.366Z,5.33
2016-11-26T12:32:52.251Z,4.97
2016-11-26T12:34:00.817Z,5.37
2016-11-26T12:35:09.386Z,5.47
2016-11-26T12:36:17.956Z,5.67
2016-11-26T12:37:26.973Z,5.61
2016-11-26T12:38:35.859Z,5.54
2016-11-26T12:39:44.465Z,5.88
2016-11-26T12:40:53.350Z,5.72
2016-11-26T12:42:02.233Z,4.83
2016-11-26T12:43:11.200Z,5.33
2016-11-26T12:44:19.765Z,5.72
2016-11-26T12:45:28.334Z,6.06
2016-11-26T12:46:37.216Z,6.27
2016-11-26T12:47:46.427Z,6.24
2016-11-26T12:48:55.344Z,6.46
2016-11-26T12:50:03.913Z,5.95
2016-11-26T12:51:12.795Z,6.15
2016-11-26T12:52:21.364Z,5.97
2016-11-26T12:53:29.942Z,5.66
2016-11-26T12:54:38.554Z,5.72
2016-11-26T12:55:47.119Z,5.59
2016-11-26T12:56:55.686Z,5.9
2016-11-26T12:58:04.895Z,5.73
2016-11-26T12:59:13.783Z,5.55
2016-11-26T13:00:22.717Z,5.4
2016-11-26T13:01:31.599Z,5.79
2016-11-26T13:02:40.485Z,5.32
2016-11-26T13:03:49.374Z,5.65
2016-11-26T13:04:57.968Z,5.91
2016-11-26T13:06:06.905Z,5.72
2016-11-26T13:07:15.788Z,5.5
2016-11-26T13:08:24.351Z,5.62
2016-11-26T13:09:32.921Z,5.65
2016-11-26T13:10:42.126Z,5.76
2016-11-26T13:11:51.042Z,5.77
2016-11-26T13:13:00.254Z,5.73
2016-11-26T13:14:09.141Z,5.94
2016-11-26T13:15:18.021Z,5.57
2016-11-26T13:16:26.590Z,5.85
2016-11-26T13:17:35.507Z,5.7
2016-11-26T13:18:44.072Z,5.79
2016-11-26T13:19:52.959Z,5.95
2016-11-26T13:21:01.524Z,6.35
2016-11-26T13:22:10.407Z,5.84
2016-11-26T13:23:19.373Z,5.9
2016-11-26T13:24:27.939Z,5.93
2016-11-26T13:25:36.832Z,6.11
2016-11-26T13:26:45.396Z,6.15
2016-11-26T13:27:54.276Z,6.16
2016-11-26T13:29:03.514Z,6.08
2016-11-26T13:30:12.396Z,5.93
2016-11-26T13:31:21.307Z,5.9
2016-11-26T13:32:29.878Z,6.15
2016-11-26T13:33:38.450Z,5.88
2016-11-26T13:34:47.683Z,6.12
2016-11-26T13:35:56.577Z,6.4
2016-11-26T13:37:05.465Z,6.32
2016-11-26T13:38:14.377Z,6.02
2016-11-26T13:39:22.944Z,6.11
2016-11-26T13:40:31.862Z,5.94
2016-11-26T13:41:41.063Z,5.61
2016-11-26T13:42:49.635Z,5.61
2016-11-26T13:43:58.203Z,5.48
2016-11-26T13:45:07.089Z,5.58
2016-11-26T13:46:15.706Z,5.47
2016-11-26T13:47:24.270Z,5.72
2016-11-26T13:48:33.151Z,5.93
2016-11-26T13:49:41.718Z,5.88
2016-11-26T13:50:50.607Z,5.65
2016-11-26T13:51:59.652Z,5.7
2016-11-26T13:53:08.223Z,5.93
2016-11-26T13:54:16.789Z,5.87
2016-11-26T13:55:25.674Z,6.37
2016-11-26T13:56:34.243Z,6.5
2016-11-26T13:57:42.905Z,6.13
2016-11-26T13:58:51.467Z,6.13
2016-11-26T14:00:00.362Z,6.24
2016-11-26T14:01:08.936Z,5.9
2016-11-26T14:02:17.510Z,6.08
2016-11-26T14:03:26.748Z,5.93
2016-11-26T14:04:35.312Z,5.88
2016-11-26T14:05:43.880Z,5.69
2016-11-26T14:06:52.763Z,6.08
2016-11-26T14:08:01.336Z,5.91
2016-11-26T14:09:10.625Z,5.93
2016-11-26T14:10:19.194Z,5.97
2016-11-26T14:11:27.762Z,5.88
2016-11-26T14:12:36.325Z,5.98
2016-11-26T14:13:45.211Z,5.98
2016-11-26T14:14:54.862Z,6.12
2016-11-26T14:16:03.430Z,6.18
2016-11-26T14:17:12.314Z,6.09
2016-11-26T14:18:21.201Z,6.15
2016-11-26T14:19:29.783Z,5.94
2016-11-26T14:20:39.436Z,5.91
2016-11-26T14:21:48.004Z,6.32
2016-11-26T14:22:57.204Z,6.16
2016-11-26T14:24:06.719Z,5.93
2016-11-26T14:25:15.284Z,6.47
2016-11-26T14:26:24.534Z,6.96
2016-11-26T14:27:33.418Z,7.15
2016-11-26T14:28:41.990Z,6.93
2016-11-26T14:29:51.187Z,6.56
2016-11-26T14:31:00.099Z,6.42
2016-11-26T14:32:09.355Z,6.75
2016-11-26T14:33:18.235Z,6.46
2016-11-26T14:34:27.125Z,6.56
2016-11-26T14:35:36.009Z,6.6
2016-11-26T14:36:44.902Z,6.88
2016-11-26T14:37:54.479Z,7.13
2016-11-26T14:39:03.368Z,6.78
2016-11-26T14:40:11.940Z,6.61
2016-11-26T14:41:20.507Z,6.32
2016-11-26T14:42:29.393Z,6.25
2016-11-26T14:43:38.947Z,6.24
2016-11-26T14:44:47.833Z,6.4
2016-11-26T14:45:56.714Z,6.25
2016-11-26T14:47:05.622Z,6.19
2016-11-26T14:48:15.483Z,6.25
2016-11-26T14:49:24.097Z,6.28
2016-11-26T14:50:32.982Z,6.19
2016-11-26T14:51:42.185Z,5.95
2016-11-26T14:52:50.748Z,6.18
2016-11-26T14:53:59.314Z,6.37
2016-11-26T14:55:08.234Z,6.18
2016-11-26T14:56:16.801Z,6.27
2016-11-26T14:57:25.371Z,6.27
2016-11-26T14:58:34.262Z,6.42
2016-11-26T14:59:42.825Z,6.06
2016-11-26T15:00:52.640Z,6.4
2016-11-26T15:02:01.205Z,6.34
2016-11-26T15:03:09.777Z,6.45
2016-11-26T15:04:18.343Z,6.25
2016-11-26T15:05:26.911Z,6.31
2016-11-26T15:06:35.826Z,6.31
2016-11-26T15:07:44.396Z,6.43
2016-11-26T15:08:53.281Z,6.46
2016-11-26T15:10:01.843Z,6.25
2016-11-26T15:11:10.727Z,5.95
2016-11-26T15:12:20.033Z,6.18
2016-11-26T15:13:28.600Z,6.32
2016-11-26T15:14:37.807Z,5.88
2016-11-26T15:15:46.696Z,5.95
2016-11-26T15:16:56.214Z,6.11
2016-11-26T15:18:05.395Z,6.09
2016-11-26T15:19:14.276Z,5.61
2016-11-26T15:20:23.157Z,5.58